createdAt,value
2018-12-23T00:01:16.676Z,2.60
2018-12-23T00:03:46.468Z,2.75
2018-12-23T00:06:15.850Z,3.13
2018-12-23T00:08:44.972Z,3.03
2018-12-23T00:11:13.912Z,3.00
2018-12-23T00:13:42.959Z,3.08
2018-12-23T00:16:11.231Z,2.92
2018-12-23T00:18:41.976Z,2.70
2018-12-23T00:21:10.527Z,3.17
2018-12-23T00:23:39.456Z,3.00
2018-12-23T00:26:08.591Z,3.12
2018-12-23T00:28:37.611Z,2.80
2018-12-23T00:31:07.062Z,2.87
2018-12-23T00:33:35.788Z,2.63
2018-12-23T00:36:05.298Z,2.57
2018-12-23T00:38:34.455Z,2.83
2018-12-23T00:41:03.859Z,3.03
2018-12-23T00:43:33.308Z,2.93
2018-12-23T00:46:02.668Z,2.37
2018-12-23T00:48:31.828Z,3.13
2018-12-23T00:51:00.622Z,2.63
2018-12-23T00:53:29.530Z,3.10
2018-12-23T00:55:58.632Z,2.60
2018-12-23T00:58:27.656Z,2.60
2018-12-23T01:00:56.551Z,2.87
2018-12-23T01:03:25.548Z,2.60
2018-12-23T01:05:54.728Z,2.50
2018-12-23T01:08:24.746Z,3.07
2018-12-23T01:10:53.625Z,2.80
2018-12-23T01:13:22.392Z,2.50
2018-12-23T01:15:51.556Z,2.90
2018-12-23T01:18:20.358Z,3.17
2018-12-23T01:20:50.423Z,2.77
2018-12-23T01:23:19.321Z,2.80
2018-12-23T01:25:48.335Z,3.00
2018-12-23T01:28:16.955Z,2.43
2018-12-23T01:30:45.751Z,2.40
2018-12-23T01:33:14.440Z,2.53
2018-12-23T01:35:43.848Z,2.80
2018-12-23T01:38:12.947Z,2.53
2018-12-23T01:40:42.133Z,2.70
2018-12-23T01:43:11.162Z,2.77
2018-12-23T01:45:41.303Z,3.03
2018-12-23T01:48:10.371Z,2.65
2018-12-23T01:50:39.499Z,2.57
2018-12-23T01:53:08.027Z,2.70
2018-12-23T01:55:37.119Z,2.57
2018-12-23T01:58:06.187Z,2.90
2018-12-23T02:00:34.948Z,2.73
2018-12-23T02:03:04.476Z,2.70
2018-12-23T02:05:33.242Z,2.70
2018-12-23T02:08:02.359Z,2.67
2018-12-23T02:10:31.238Z,2.80
2018-12-23T02:13:00.650Z,2.20
2018-12-23T02:15:29.719Z,2.60
2018-12-23T02:17:58.856Z,2.10
2018-12-23T02:20:30.770Z,2.57
2018-12-23T02:23:00.486Z,2.47
2018-12-23T02:25:29.578Z,2.20
2018-12-23T02:27:58.057Z,2.80
2018-12-23T02:30:27.133Z,2.40
2018-12-23T02:32:56.405Z,2.70
2018-12-23T02:35:25.450Z,2.97
2018-12-23T02:37:55.795Z,2.67
2018-12-23T02:40:24.849Z,3.00
2018-12-23T02:42:53.420Z,2.73
2018-12-23T02:45:22.580Z,2.97
2018-12-23T02:47:51.712Z,3.03
2018-12-23T02:50:21.431Z,2.13
2018-12-23T02:52:50.788Z,2.70
2018-12-23T02:55:19.545Z,2.60
2018-12-23T02:57:48.680Z,2.60
2018-12-23T03:00:17.503Z,2.40
2018-12-23T03:02:46.656Z,2.07
2018-12-23T03:05:15.226Z,2.25
2018-12-23T03:07:44.460Z,2.13
2018-12-23T03:10:13.301Z,2.08
2018-12-23T03:12:42.651Z,1.93
2018-12-23T03:15:11.387Z,2.37
2018-12-23T03:17:40.743Z,2.20
2018-12-23T03:20:09.784Z,2.63
2018-12-23T03:22:38.929Z,2.20
2018-12-23T03:25:07.837Z,2.13
2018-12-23T03:27:36.349Z,2.20
2018-12-23T03:30:05.756Z,2.37
2018-12-23T03:32:34.622Z,2.30
2018-12-23T03:35:03.416Z,2.43
2018-12-23T03:37:33.261Z,2.07
2018-12-23T03:40:01.992Z,2.07
2018-12-23T03:42:30.736Z,2.27
2018-12-23T03:44:59.863Z,2.33
2018-12-23T03:47:29.043Z,2.57
2018-12-23T03:49:58.521Z,2.53
2018-12-23T03:52:27.657Z,2.27
2018-12-23T03:54:56.902Z,2.27
2018-12-23T03:57:25.828Z,2.50
2018-12-23T03:59:54.983Z,1.93
2018-12-23T04:02:24.468Z,2.23
2018-12-23T04:04:53.293Z,2.40
2018-12-23T04:07:23.059Z,2.30
2018-12-23T04:09:52.215Z,2.47
2018-12-23T04:12:21.176Z,2.10
2018-12-23T04:14:50.090Z,2.00
2018-12-23T04:17:19.179Z,2.00
2018-12-23T04:19:47.943Z,2.30
2018-12-23T04:22:16.455Z,1.83
2018-12-23T04:24:45.476Z,2.20
2018-12-23T04:27:14.955Z,2.50
2018-12-23T04:29:44.056Z,2.10
2018-12-23T04:32:13.500Z,2.23
2018-12-23T04:34:42.547Z,2.20
2018-12-23T04:37:12.021Z,2.20
2018-12-23T04:39:41.375Z,2.07
2018-12-23T04:42:10.405Z,1.93
2018-12-23T04:44:39.132Z,2.70
2018-12-23T04:47:07.992Z,2.47
2018-12-23T04:49:36.699Z,2.50
2018-12-23T04:52:05.543Z,2.00
2018-12-23T04:54:38.340Z,2.17
2018-12-23T04:57:06.949Z,2.50
2018-12-23T04:59:35.694Z,2.17
2018-12-23T05:02:04.432Z,2.50
2018-12-23T05:04:33.568Z,2.60
2018-12-23T05:07:02.298Z,2.40
2018-12-23T05:09:31.996Z,2.57
2018-12-23T05:12:00.478Z,2.73
2018-12-23T05:14:29.813Z,2.20
2018-12-23T05:16:59.232Z,2.30
2018-12-23T05:19:28.336Z,2.30
2018-12-23T05:21:58.273Z,2.47
2018-12-23T05:24:27.059Z,2.50
2018-12-23T05:26:55.965Z,2.20
2018-12-23T05:29:24.960Z,2.60
2018-12-23T05:31:54.131Z,2.33
2018-12-23T05:34:23.235Z,2.60
2018-12-23T05:36:52.622Z,2.13
2018-12-23T05:39:22.347Z,2.50
2018-12-23T05:41:51.132Z,2.67
2018-12-23T05:44:20.347Z,2.40
2018-12-23T05:46:49.144Z,2.40
2018-12-23T05:49:18.490Z,2.53
2018-12-23T05:51:47.779Z,2.30
2018-12-23T05:54:16.656Z,2.03
2018-12-23T05:56:44.920Z,2.23
2018-12-23T05:59:14.292Z,2.40
2018-12-23T06:01:43.331Z,2.17
2018-12-23T06:04:12.768Z,2.57
2018-12-23T06:06:42.036Z,2.73
2018-12-23T06:09:10.895Z,2.57
2018-12-23T06:11:39.910Z,2.63
2018-12-23T06:14:08.807Z,2.03
2018-12-23T06:16:38.362Z,2.67
2018-12-23T06:19:07.697Z,2.00
2018-12-23T06:21:36.292Z,2.33
2018-12-23T06:24:05.371Z,2.67
2018-12-23T06:26:34.932Z,2.33
2018-12-23T06:29:03.689Z,2.47
2018-12-23T06:31:32.720Z,2.67
2018-12-23T06:34:01.051Z,2.57
2018-12-23T06:36:31.884Z,2.15
2018-12-23T06:39:01.312Z,2.63
2018-12-23T06:41:30.990Z,2.53
2018-12-23T06:44:00.517Z,2.77
2018-12-23T06:46:30.335Z,2.37
2018-12-23T06:48:59.435Z,2.50
2018-12-23T06:51:28.856Z,2.60
2018-12-23T06:53:57.704Z,2.60
2018-12-23T06:56:26.591Z,2.70
2018-12-23T06:58:55.964Z,2.23
2018-12-23T07:01:25.054Z,2.67
2018-12-23T07:03:54.147Z,2.73
2018-12-23T07:06:23.084Z,2.60
2018-12-23T07:08:52.047Z,2.57
2018-12-23T07:11:21.432Z,2.67
2018-12-23T07:13:50.511Z,2.47
2018-12-23T07:16:19.890Z,2.70
2018-12-23T07:18:49.446Z,2.70
2018-12-23T07:21:18.594Z,2.50
2018-12-23T07:23:47.732Z,2.60
2018-12-23T07:26:17.196Z,2.60
2018-12-23T07:28:46.290Z,2.40
2018-12-23T07:31:15.386Z,2.43
2018-12-23T07:33:44.713Z,2.40
2018-12-23T07:36:14.089Z,2.80
2018-12-23T07:38:43.053Z,2.70
2018-12-23T07:41:12.396Z,2.67
2018-12-23T07:43:41.821Z,2.60
2018-12-23T07:46:11.242Z,3.00
2018-12-23T07:48:39.884Z,2.45
2018-12-23T07:51:16.178Z,2.60
2018-12-23T07:53:45.624Z,2.93
2018-12-23T07:56:14.512Z,2.95
2018-12-23T07:58:44.063Z,2.77
2018-12-23T08:01:12.563Z,3.02
2018-12-23T08:03:41.632Z,2.83
2018-12-23T08:06:10.846Z,2.87
2018-12-23T08:08:40.445Z,2.80
2018-12-23T08:11:10.868Z,2.90
2018-12-23T08:13:40.492Z,3.43
2018-12-23T08:16:11.694Z,3.83
2018-12-23T08:18:41.096Z,2.90
2018-12-23T08:21:09.996Z,2.87
2018-12-23T08:23:38.511Z,3.30
2018-12-23T08:26:07.644Z,2.60
2018-12-23T08:28:36.301Z,2.87
2018-12-23T08:31:04.867Z,3.10
2018-12-23T08:33:35.152Z,2.87
2018-12-23T08:36:04.489Z,2.87
2018-12-23T08:38:33.630Z,2.40
2018-12-23T08:41:02.606Z,2.93
2018-12-23T08:43:31.131Z,2.90
2018-12-23T08:46:01.125Z,3.13
2018-12-23T08:48:30.007Z,2.87
2018-12-23T08:50:59.408Z,3.05
2018-12-23T08:53:28.518Z,2.83
2018-12-23T08:55:58.421Z,2.67
2018-12-23T08:58:27.777Z,2.17
2018-12-23T09:00:56.891Z,2.50
2018-12-23T09:03:25.704Z,2.47
2018-12-23T09:05:55.216Z,2.70
2018-12-23T09:08:25.081Z,2.90
2018-12-23T09:10:54.211Z,2.90
2018-12-23T09:13:23.611Z,2.60
2018-12-23T09:15:52.380Z,3.10
2018-12-23T09:18:22.344Z,2.57
2018-12-23T09:20:51.204Z,2.50
2018-12-23T09:23:20.680Z,3.00
2018-12-23T09:25:49.759Z,2.93
2018-12-23T09:28:18.523Z,2.83
2018-12-23T09:30:46.767Z,2.83
2018-12-23T09:33:17.128Z,2.63
2018-12-23T09:35:45.892Z,2.70
2018-12-23T09:38:19.064Z,2.97
2018-12-23T09:40:52.261Z,2.77
2018-12-23T09:43:22.752Z,2.70
2018-12-23T09:46:00.969Z,2.77
2018-12-23T09:48:31.879Z,3.20
2018-12-23T09:51:05.014Z,3.30
2018-12-23T09:53:34.699Z,3.00
2018-12-23T09:56:03.475Z,2.80
2018-12-23T09:58:32.731Z,3.60
2018-12-23T10:01:02.004Z,3.50
2018-12-23T10:03:32.432Z,3.00
2018-12-23T10:06:01.159Z,2.87
2018-12-23T10:08:30.000Z,2.90
2018-12-23T10:10:59.567Z,3.10
2018-12-23T10:13:28.476Z,3.10
2018-12-23T10:15:57.797Z,3.40
2018-12-23T10:18:27.442Z,2.93
2018-12-23T10:20:56.195Z,3.20
2018-12-23T10:23:24.952Z,3.00
2018-12-23T10:25:54.149Z,2.83
2018-12-23T10:28:23.791Z,2.63
2018-12-23T10:30:53.251Z,2.83
2018-12-23T10:33:22.736Z,2.97
2018-12-23T10:35:51.947Z,2.67
2018-12-23T10:38:22.007Z,2.90
2018-12-23T10:40:52.022Z,3.17
2018-12-23T10:43:21.116Z,2.80
2018-12-23T10:45:50.918Z,2.90
2018-12-23T10:48:19.659Z,3.30
2018-12-23T10:50:48.969Z,3.53
2018-12-23T10:53:17.804Z,3.23
2018-12-23T10:55:46.526Z,3.10
2018-12-23T10:58:15.069Z,3.50
2018-12-23T11:00:43.864Z,3.20
2018-12-23T11:03:12.601Z,3.10
2018-12-23T11:05:42.225Z,3.60
2018-12-23T11:08:11.199Z,3.70
2018-12-23T11:10:39.949Z,3.67
2018-12-23T11:13:08.905Z,3.27
2018-12-23T11:15:38.399Z,3.70
2018-12-23T11:18:07.648Z,3.00
2018-12-23T11:20:36.675Z,3.40
2018-12-23T11:23:05.639Z,3.83
2018-12-23T11:25:34.548Z,3.17
2018-12-23T11:28:03.544Z,3.43
2018-12-23T11:30:33.540Z,3.33
2018-12-23T11:33:02.619Z,3.55
2018-12-23T11:35:31.469Z,3.83
2018-12-23T11:38:00.637Z,3.33
2018-12-23T11:40:30.242Z,3.20
2018-12-23T11:42:59.696Z,3.40
2018-12-23T11:45:28.788Z,3.43
2018-12-23T11:47:58.703Z,3.15
2018-12-23T11:50:27.852Z,3.57
2018-12-23T11:52:57.745Z,3.77
2018-12-23T11:55:27.496Z,3.43
2018-12-23T11:57:56.625Z,3.37
2018-12-23T12:00:25.688Z,3.60
2018-12-23T12:02:55.123Z,3.40
2018-12-23T12:05:23.836Z,3.30
2018-12-23T12:07:53.371Z,3.67
2018-12-23T12:10:22.603Z,3.50
2018-12-23T12:12:51.344Z,3.40
2018-12-23T12:15:20.656Z,3.30
2018-12-23T12:17:50.239Z,4.15
2018-12-23T12:20:19.344Z,3.63
2018-12-23T12:22:48.644Z,3.17
2018-12-23T12:25:17.472Z,3.40
2018-12-23T12:27:46.243Z,3.50
2018-12-23T12:30:15.407Z,3.47
2018-12-23T12:32:44.812Z,3.47
2018-12-23T12:35:13.528Z,3.50
2018-12-23T12:37:42.804Z,3.33
2018-12-23T12:40:12.385Z,3.63
2018-12-23T12:42:41.396Z,3.40
2018-12-23T12:45:10.606Z,3.30
2018-12-23T12:47:39.304Z,3.50
2018-12-23T12:50:08.504Z,3.42
2018-12-23T12:52:37.679Z,3.30
2018-12-23T12:55:07.395Z,3.40
2018-12-23T12:57:37.045Z,3.40
2018-12-23T13:00:06.516Z,2.80
2018-12-23T13:02:34.852Z,3.40
2018-12-23T13:05:04.269Z,3.17
2018-12-23T13:07:33.104Z,3.53
2018-12-23T13:10:02.455Z,3.40
2018-12-23T13:12:31.468Z,3.30
2018-12-23T13:15:01.104Z,3.60
2018-12-23T13:17:29.856Z,3.80
2018-12-23T13:19:58.811Z,3.17
2018-12-23T13:22:27.955Z,3.20
2018-12-23T13:24:56.464Z,3.13
2018-12-23T13:27:25.660Z,3.10
2018-12-23T13:29:54.820Z,2.80
2018-12-23T13:32:25.080Z,3.33
2018-12-23T13:34:54.172Z,2.80
2018-12-23T13:37:23.531Z,3.10
2018-12-23T13:39:52.948Z,3.37
2018-12-23T13:44:29.082Z,3.33
2018-12-23T13:47:09.282Z,3.17
2018-12-23T13:49:43.772Z,3.23
2018-12-23T13:52:18.533Z,3.23
2018-12-23T13:55:07.293Z,3.23
2018-12-23T13:57:41.888Z,2.80
2018-12-23T14:00:16.013Z,3.10
2018-12-23T14:02:48.409Z,2.97
2018-12-23T14:05:23.115Z,3.53
2018-12-23T14:07:58.349Z,3.97
2018-12-23T14:10:33.524Z,3.70
2018-12-23T14:13:02.933Z,3.30
2018-12-23T14:15:31.703Z,3.07
2018-12-23T14:18:01.150Z,3.17
2018-12-23T14:20:30.217Z,2.97
2018-12-23T14:22:59.104Z,3.37
2018-12-23T14:25:29.001Z,3.27
2018-12-23T14:27:58.132Z,3.60
2018-12-23T14:30:28.005Z,3.63
2018-12-23T14:32:57.868Z,3.13
2018-12-23T14:35:29.052Z,2.80
2018-12-23T14:37:57.804Z,3.10
2018-12-23T14:40:27.675Z,3.23
2018-12-23T14:42:56.515Z,3.67
2018-12-23T14:46:31.575Z,3.43
2018-12-23T14:49:01.096Z,3.25
2018-12-23T14:51:30.261Z,3.17
2018-12-23T14:53:59.672Z,3.30
2018-12-23T14:56:28.825Z,3.60
2018-12-23T14:58:57.983Z,2.80
2018-12-23T15:01:27.608Z,3.87
2018-12-23T15:03:56.641Z,3.27
2018-12-23T15:06:27.605Z,3.33
2018-12-23T15:08:57.906Z,4.45
2018-12-23T15:11:28.243Z,3.20
2018-12-23T15:13:57.757Z,3.60
2018-12-23T15:16:27.356Z,3.10
2018-12-23T15:18:57.214Z,3.10
2018-12-23T15:21:27.637Z,3.43
2018-12-23T15:23:58.672Z,3.45
2018-12-23T15:26:27.342Z,2.90
2018-12-23T15:28:58.958Z,3.20
2018-12-23T15:31:28.028Z,3.60
2018-12-23T15:33:58.147Z,3.53
2018-12-23T15:36:27.277Z,3.60
2018-12-23T15:38:56.095Z,2.93
2018-12-23T15:41:26.171Z,3.00
2018-12-23T15:43:55.603Z,3.37
2018-12-23T15:46:25.070Z,3.20
2018-12-23T15:48:53.992Z,3.90
2018-12-23T15:51:23.364Z,3.33
2018-12-23T15:53:52.639Z,3.60
2018-12-23T15:56:22.152Z,3.33
2018-12-23T15:58:51.543Z,3.67
2018-12-23T16:01:20.862Z,3.77
2018-12-23T16:03:49.616Z,3.37
2018-12-23T16:06:22.347Z,3.60
2018-12-23T16:08:51.481Z,3.13
2018-12-23T16:11:20.852Z,3.53
2018-12-23T16:13:49.469Z,3.33
2018-12-23T16:16:18.922Z,3.63
2018-12-23T16:18:47.633Z,3.30
2018-12-23T16:21:16.749Z,3.20
2018-12-23T16:23:46.467Z,2.87
2018-12-23T16:26:20.979Z,2.83
2018-12-23T16:28:50.244Z,3.13
2018-12-23T16:31:18.743Z,3.17
2018-12-23T16:33:47.932Z,3.13
2018-12-23T16:36:16.511Z,3.63
2018-12-23T16:38:45.427Z,3.83
2018-12-23T16:41:14.293Z,3.30
2018-12-23T16:43:43.704Z,3.00
2018-12-23T16:46:12.495Z,3.13
2018-12-23T16:48:41.103Z,3.10
2018-12-23T16:51:12.103Z,4.03
2018-12-23T16:53:41.550Z,3.40
2018-12-23T16:56:10.552Z,3.60
2018-12-23T16:58:40.407Z,3.50
2018-12-23T17:01:09.540Z,3.10
2018-12-23T17:03:38.812Z,3.03
2018-12-23T17:06:07.949Z,3.57
2018-12-23T17:08:36.828Z,3.40
2018-12-23T17:11:05.678Z,3.40
2018-12-23T17:13:35.022Z,2.87
2018-12-23T17:16:04.435Z,3.70
2018-12-23T17:18:33.684Z,3.17
2018-12-23T17:21:02.272Z,3.10
2018-12-23T17:23:31.291Z,3.23
2018-12-23T17:26:01.234Z,3.17
2018-12-23T17:28:30.210Z,3.67
2018-12-23T17:30:58.886Z,3.20
2018-12-23T17:33:28.284Z,3.65
2018-12-23T17:35:57.226Z,3.07
2018-12-23T17:38:26.345Z,3.57
2018-12-23T17:40:55.355Z,3.10
2018-12-23T17:43:24.252Z,3.30
2018-12-23T17:45:53.333Z,2.70
2018-12-23T17:48:23.203Z,3.27
2018-12-23T17:50:52.375Z,3.47
2018-12-23T17:53:21.563Z,3.37
2018-12-23T17:55:50.214Z,3.57
2018-12-23T17:58:19.869Z,3.57
2018-12-23T18:00:48.644Z,3.37
2018-12-23T18:03:18.465Z,3.20
2018-12-23T18:05:47.572Z,3.60
2018-12-23T18:08:17.339Z,3.60
2018-12-23T18:10:46.128Z,3.10
2018-12-23T18:13:16.401Z,3.57
2018-12-23T18:15:45.571Z,3.70
2018-12-23T18:18:14.377Z,3.50
2018-12-23T18:20:44.228Z,3.47
2018-12-23T18:23:13.175Z,2.97
2018-12-23T18:25:42.049Z,3.43
2018-12-23T18:28:12.232Z,3.17
2018-12-23T18:30:41.135Z,3.17
2018-12-23T18:33:11.005Z,3.30
2018-12-23T18:35:41.183Z,3.30
2018-12-23T18:38:10.507Z,3.87
2018-12-23T18:40:39.343Z,4.00
2018-12-23T18:43:08.255Z,3.47
2018-12-23T18:45:36.931Z,3.10
2018-12-23T18:48:06.176Z,3.50
2018-12-23T18:50:36.224Z,3.77
2018-12-23T18:53:05.594Z,3.67
2018-12-23T18:55:36.679Z,3.40
2018-12-23T18:58:05.984Z,4.13
2018-12-23T19:00:35.332Z,3.40
2018-12-23T19:03:04.611Z,3.52
2018-12-23T19:05:34.424Z,3.57
2018-12-23T19:08:06.986Z,4.07
2018-12-23T19:10:43.756Z,3.97
2018-12-23T19:14:23.064Z,3.37
2018-12-23T19:16:59.280Z,3.30
2018-12-23T19:19:33.296Z,3.80
2018-12-23T19:22:07.984Z,3.33
2018-12-23T19:24:42.485Z,4.17
2018-12-23T19:29:18.888Z,3.80
2018-12-23T19:32:00.474Z,3.67
2018-12-23T19:36:40.055Z,3.90
2018-12-23T19:39:16.636Z,3.27
2018-12-23T19:41:50.814Z,3.53
2018-12-23T19:44:26.012Z,3.73
2018-12-23T19:47:06.608Z,3.77
2018-12-23T19:49:41.048Z,4.07
2018-12-23T19:52:14.776Z,3.30
2018-12-23T19:55:02.436Z,4.22
2018-12-23T19:57:37.104Z,3.60
2018-12-23T20:02:16.176Z,3.93
2018-12-23T20:04:51.084Z,3.83
2018-12-23T20:09:26.637Z,3.47
2018-12-23T20:12:04.846Z,3.50
2018-12-23T20:14:39.923Z,3.60
2018-12-23T20:17:17.936Z,3.23
2018-12-23T20:19:52.176Z,3.90
2018-12-23T20:22:29.028Z,4.17
2018-12-23T20:25:20.525Z,3.60
2018-12-23T20:27:56.303Z,3.80
2018-12-23T20:30:30.340Z,3.77
2018-12-23T20:33:06.976Z,3.67
2018-12-23T20:36:43.436Z,4.00
2018-12-23T20:39:20.196Z,3.63
2018-12-23T20:41:54.815Z,3.30
2018-12-23T20:46:31.596Z,3.43
2018-12-23T20:49:40.465Z,3.30
2018-12-23T20:52:17.673Z,3.87
2018-12-23T20:54:56.986Z,3.60
2018-12-23T20:59:32.887Z,3.80
2018-12-23T21:02:17.940Z,3.90
2018-12-23T21:04:56.263Z,2.93
2018-12-23T21:07:31.211Z,3.47
2018-12-23T21:10:09.510Z,3.60
2018-12-23T21:14:47.285Z,3.70
2018-12-23T21:17:36.769Z,3.10
2018-12-23T21:20:19.969Z,3.47
2018-12-23T21:22:58.667Z,3.77
2018-12-23T21:25:32.624Z,3.80
2018-12-23T21:30:07.748Z,3.90
2018-12-23T21:32:44.815Z,4.03
2018-12-23T21:35:19.528Z,3.73
2018-12-23T21:37:54.017Z,3.63
2018-12-23T21:40:28.266Z,3.67
2018-12-23T21:43:02.071Z,3.80
2018-12-23T21:47:39.225Z,3.83
2018-12-23T21:52:17.755Z,3.13
2018-12-23T21:56:55.068Z,3.20
2018-12-23T21:59:43.176Z,3.47
2018-12-23T22:03:21.474Z,3.10
2018-12-23T22:06:57.533Z,3.50
2018-12-23T22:09:34.062Z,2.97
2018-12-23T22:12:13.657Z,3.53
2018-12-23T22:14:43.576Z,3.37
2018-12-23T22:17:12.840Z,3.63
2018-12-23T22:19:42.322Z,3.73
2018-12-23T22:22:11.443Z,3.67
2018-12-23T22:24:40.779Z,3.40
2018-12-23T22:27:09.863Z,3.83
2018-12-23T22:29:38.719Z,3.70
2018-12-23T22:32:07.713Z,3.20
2018-12-23T22:34:36.579Z,3.50
2018-12-23T22:37:05.855Z,3.37
2018-12-23T22:39:34.898Z,3.07
2018-12-23T22:42:03.732Z,3.50
2018-12-23T22:44:33.134Z,3.93
2018-12-23T22:47:02.152Z,3.43
2018-12-23T22:49:30.914Z,3.97
2018-12-23T22:51:59.988Z,3.83
2018-12-23T22:54:30.103Z,3.97
2018-12-23T22:56:59.119Z,4.47
2018-12-23T22:59:28.587Z,4.63
2018-12-23T23:01:57.393Z,4.63
2018-12-23T23:04:26.251Z,4.00
2018-12-23T23:06:55.036Z,3.63
2018-12-23T23:09:23.581Z,3.50
2018-12-23T23:11:52.720Z,3.27
2018-12-23T23:14:21.551Z,3.20
2018-12-23T23:16:51.509Z,3.70
2018-12-23T23:19:21.020Z,3.10
2018-12-23T23:21:49.784Z,3.57
2018-12-23T23:24:18.979Z,3.57
2018-12-23T23:26:48.134Z,3.50
2018-12-23T23:29:17.201Z,3.33
2018-12-23T23:31:45.432Z,3.10
2018-12-23T23:34:14.568Z,3.20
2018-12-23T23:36:43.335Z,2.77
2018-12-23T23:39:12.437Z,2.80
2018-12-23T23:41:41.181Z,2.90
2018-12-23T23:44:10.131Z,3.00
2018-12-23T23:46:39.396Z,3.53
2018-12-23T23:49:08.319Z,3.20
2018-12-23T23:51:37.024Z,3.50
2018-12-23T23:54:06.167Z,2.67
2018-12-23T23:56:34.992Z,3.05
2018-12-23T23:59:04.393Z,3.40
